Time,TemperatureF,DewpointF,PressureIn,WindDirection,WindDirectionDegrees,WindSpeedMPH,WindSpeedGustMPH,Humidity,HourlyPrecipIn,Conditions,Clouds,dailyrainin,SoftwareType,DateUTC
2013-01-25 00:00:00,16.7,7.6,30.29,SE,139,2.0,2.0,67,0.00,,,0.00,Wunderground v.1.15,2013-01-25 06:00:00,
2013-01-25 00:10:00,16.6,7.9,30.28,SE,145,2.0,3.0,68,0.00,,,0.00,Wunderground v.1.15,2013-01-25 06:10:00,
2013-01-25 00:20:00,16.6,7.5,30.28,SSE,158,3.0,3.0,67,0.00,,,0.00,Wunderground v.1.15,2013-01-25 06:20:00,
2013-01-25 00:30:00,16.3,7.6,30.28,SE,124,2.0,2.0,68,0.00,,,0.00,Wunderground v.1.15,2013-01-25 06:30:00,
2013-01-25 00:40:00,15.8,7.1,30.27,SSE,154,1.0,2.0,68,0.00,,,0.00,Wunderground v.1.15,2013-01-25 06:40:00,
2013-01-25 00:50:00,15.2,7.2,30.26,SE,134,1.0,2.0,70,0.00,,,0.00,Wunderground v.1.15,2013-01-25 06:50:00,
2013-01-25 01:00:00,15.3,7.3,30.26,SE,138,2.0,2.0,70,0.00,,,0.00,Wunderground v.1.15,2013-01-25 07:00:00,
2013-01-25 01:10:00,15.2,7.2,30.25,SSE,155,2.0,3.0,70,0.00,,,0.00,Wunderground v.1.15,2013-01-25 07:10:00,
2013-01-25 01:20:00,14.6,6.6,30.25,SSE,165,2.0,2.0,70,0.00,,,0.00,Wunderground v.1.15,2013-01-25 07:20:00,
2013-01-25 01:30:00,14.0,6.6,30.25,SSE,167,2.0,2.0,72,0.00,,,0.00,Wunderground v.1.15,2013-01-25 07:30:00,
2013-01-25 01:40:00,13.4,6.4,30.24,SSE,163,2.0,2.0,73,0.00,,,0.00,Wunderground v.1.15,2013-01-25 07:40:00,
2013-01-25 01:45:00,13.3,6.3,30.24,SSE,162,2.0,2.0,73,0.00,,,0.00,Wunderground v.1.15,2013-01-25 07:45:00,
2013-01-25 01:50:00,13.2,6.2,30.25,SSE,162,1.0,1.0,73,0.00,,,0.00,Wunderground v.1.15,2013-01-25 07:50:00,
2013-01-25 02:00:00,12.5,5.8,30.25,SSE,162,0.0,0.0,74,0.00,,,0.00,Wunderground v.1.15,2013-01-25 08:00:00,
2013-01-25 02:10:00,11.9,5.5,30.25,SSE,162,0.0,0.0,75,0.00,,,0.00,Wunderground v.1.15,2013-01-25 08:10:00,
2013-01-25 02:15:00,11.9,5.8,30.25,SSE,162,0.0,0.0,76,0.00,,,0.00,Wunderground v.1.15,2013-01-25 08:15:00,
2013-01-25 02:25:00,12.4,6.3,30.25,SSE,162,1.0,2.0,76,0.00,,,0.00,Wunderground v.1.15,2013-01-25 08:25:00,
2013-01-25 02:35:00,12.8,6.4,30.25,SSW,208,2.0,2.0,75,0.00,,,0.00,Wunderground v.1.15,2013-01-25 08:35:00,
2013-01-25 02:45:00,13.6,6.8,30.24,SSW,208,2.0,2.0,74,0.00,,,0.00,Wunderground v.1.15,2013-01-25 08:45:00,
2013-01-25 02:55:00,13.9,6.5,30.24,SW,235,2.0,2.0,72,0.00,,,0.00,Wunderground v.1.15,2013-01-25 08:55:00,
2013-01-25 03:00:00,13.7,6.6,30.24,WSW,238,2.0,2.0,73,0.00,,,0.00,Wunderground v.1.15,2013-01-25 09:00:00,
2013-01-25 03:10:00,13.6,6.5,30.24,SW,226,2.0,3.0,73,0.00,,,0.00,Wunderground v.1.15,2013-01-25 09:10:00,
2013-01-25 03:15:00,13.8,6.7,30.23,SW,217,2.0,3.0,73,0.00,,,0.00,Wunderground v.1.15,2013-01-25 09:15:00,
2013-01-25 03:25:00,13.9,6.8,30.24,WSW,239,1.0,2.0,73,0.00,,,0.00,Wunderground v.1.15,2013-01-25 09:25:00,
2013-01-25 03:35:00,13.5,6.5,30.23,WSW,238,0.0,1.0,73,0.00,,,0.00,Wunderground v.1.15,2013-01-25 09:35:00,
2013-01-25 03:45:00,12.8,5.8,30.23,WSW,239,0.0,0.0,73,0.00,,,0.00,Wunderground v.1.15,2013-01-25 09:45:00,
2013-01-25 03:55:00,12.0,5.3,30.23,WSW,239,0.0,0.0,74,0.00,,,0.00,Wunderground v.1.15,2013-01-25 09:55:00,
2013-01-25 04:00:00,11.8,5.4,30.23,WSW,239,0.0,0.0,75,0.00,,,0.00,Wunderground v.1.15,2013-01-25 10:00:00,
2013-01-25 04:10:00,12.1,6.0,30.21,SSW,202,2.0,3.0,76,0.00,,,0.00,Wunderground v.1.15,2013-01-25 10:10:00,
2013-01-25 04:20:00,12.7,6.6,30.21,West,260,2.0,2.0,76,0.00,,,0.00,Wunderground v.1.15,2013-01-25 10:20:00,
2013-01-25 04:30:00,12.7,6.3,30.22,WSW,239,1.0,1.0,75,0.00,,,0.00,Wunderground v.1.15,2013-01-25 10:30:00,
2013-01-25 04:40:00,12.8,6.4,30.21,West,266,1.0,1.0,75,0.00,,,0.00,Wunderground v.1.15,2013-01-25 10:40:00,
2013-01-25 04:50:00,12.8,6.4,30.21,SW,221,1.0,1.0,75,0.00,,,0.00,Wunderground v.1.15,2013-01-25 10:50:00,
2013-01-25 05:00:00,13.0,6.6,30.22,WSW,257,2.0,2.0,75,0.00,,,0.00,Wunderground v.1.15,2013-01-25 11:00:00,
2013-01-25 05:10:00,13.1,6.4,30.22,WSW,244,2.0,2.0,74,0.00,,,0.00,Wunderground v.1.15,2013-01-25 11:10:00,
2013-01-25 05:15:00,13.0,6.3,30.22,West,269,2.0,2.0,74,0.00,,,0.00,Wunderground v.1.15,2013-01-25 11:15:00,
2013-01-25 05:25:00,12.2,5.8,30.22,WSW,255,1.0,2.0,75,0.00,,,0.00,Wunderground v.1.15,2013-01-25 11:25:00,
2013-01-25 05:30:00,11.9,5.8,30.22,West,264,1.0,1.0,76,0.00,,,0.00,Wunderground v.1.15,2013-01-25 11:30:00,
2013-01-25 05:40:00,11.7,6.2,30.22,WSW,247,0.0,2.0,78,0.00,,,0.00,Wunderground v.1.15,2013-01-25 11:40:00,
2013-01-25 05:50:00,11.6,6.1,30.22,WSW,247,0.0,1.0,78,0.00,,,0.00,Wunderground v.1.15,2013-01-25 11:50:00,
2013-01-25 06:00:00,12.0,6.7,30.22,West,266,1.0,2.0,79,0.00,,,0.00,Wunderground v.1.15,2013-01-25 12:00:00,
2013-01-25 06:10:00,11.9,6.6,30.22,West,271,1.0,2.0,79,0.00,,,0.00,Wunderground v.1.15,2013-01-25 12:10:00,
2013-01-25 06:15:00,12.1,6.8,30.22,West,274,2.0,2.0,79,0.00,,,0.00,Wunderground v.1.15,2013-01-25 12:15:00,
2013-01-25 06:25:00,11.9,6.6,30.22,West,278,2.0,3.0,79,0.00,,,0.00,Wunderground v.1.15,2013-01-25 12:25:00,
2013-01-25 06:35:00,12.4,7.4,30.22,West,259,1.0,2.0,80,0.00,,,0.00,Wunderground v.1.15,2013-01-25 12:35:00,
2013-01-25 06:45:00,12.0,6.7,30.22,West,259,0.0,0.0,79,0.00,,,0.00,Wunderground v.1.15,2013-01-25 12:45:00,
2013-01-25 06:55:00,12.6,7.6,30.23,West,259,0.0,0.0,80,0.00,,,0.00,Wunderground v.1.15,2013-01-25 12:55:00,
2013-01-25 07:00:00,12.5,7.5,30.23,WSW,258,0.0,0.0,80,0.00,,,0.00,Wunderground v.1.15,2013-01-25 13:00:00,
2013-01-25 07:05:00,12.5,7.8,30.23,West,259,0.0,0.0,81,0.00,,,0.00,Wunderground v.1.15,2013-01-25 13:05:00,
2013-01-25 07:15:00,12.6,7.9,30.23,WSW,248,0.0,1.0,81,0.00,,,0.00,Wunderground v.1.15,2013-01-25 13:15:00,
2013-01-25 07:25:00,12.3,7.6,30.23,WSW,255,0.0,1.0,81,0.00,,,0.00,Wunderground v.1.15,2013-01-25 13:25:00,
2013-01-25 07:35:00,13.2,8.7,30.23,WNW,283,1.0,1.0,82,0.00,,,0.00,Wunderground v.1.15,2013-01-25 13:35:00,
2013-01-25 07:40:00,13.4,8.7,30.24,West,260,1.0,1.0,81,0.00,,,0.00,Wunderground v.1.15,2013-01-25 13:40:00,
2013-01-25 07:50:00,13.2,8.5,30.24,WSW,254,1.0,1.0,81,0.00,,,0.00,Wunderground v.1.15,2013-01-25 13:50:00,
2013-01-25 08:00:00,13.0,8.5,30.24,WSW,255,0.0,0.0,82,0.00,,,0.00,Wunderground v.1.15,2013-01-25 14:00:00,
2013-01-25 08:10:00,13.1,8.6,30.24,WSW,255,0.0,0.0,82,0.00,,,0.00,Wunderground v.1.15,2013-01-25 14:10:00,
2013-01-25 08:15:00,13.2,9.0,30.24,WSW,255,0.0,0.0,83,0.00,,,0.00,Wunderground v.1.15,2013-01-25 14:15:00,
2013-01-25 08:25:00,14.5,10.8,30.24,West,281,1.0,2.0,85,0.00,,,0.00,Wunderground v.1.15,2013-01-25 14:25:00,
2013-01-25 08:35:00,16.0,11.7,30.24,West,277,1.0,2.0,83,0.00,,,0.00,Wunderground v.1.15,2013-01-25 14:35:00,
2013-01-25 08:45:00,17.2,13.2,30.25,WSW,248,1.0,2.0,84,0.00,,,0.00,Wunderground v.1.15,2013-01-25 14:45:00,
2013-01-25 08:50:00,18.1,13.8,30.25,WSW,257,1.0,1.0,83,0.00,,,0.00,Wunderground v.1.15,2013-01-25 14:50:00,
2013-01-25 09:00:00,20.0,15.4,30.25,WNW,295,2.0,4.0,82,0.00,,,0.00,Wunderground v.1.15,2013-01-25 15:00:00,
2013-01-25 09:10:00,21.6,16.7,30.25,WNW,299,1.0,1.0,81,0.00,,,0.00,Wunderground v.1.15,2013-01-25 15:10:00,
2013-01-25 09:15:00,22.7,17.7,30.25,West,265,1.0,2.0,81,0.00,,,0.00,Wunderground v.1.15,2013-01-25 15:15:00,
2013-01-25 09:25:00,24.2,18.6,30.25,West,276,2.0,2.0,79,0.00,,,0.00,Wunderground v.1.15,2013-01-25 15:25:00,
2013-01-25 09:35:00,25.3,19.1,30.26,West,273,3.0,4.0,77,0.00,,,0.00,Wunderground v.1.15,2013-01-25 15:35:00,
2013-01-25 09:45:00,26.5,20.0,30.26,WNW,295,3.0,4.0,76,0.00,,,0.00,Wunderground v.1.15,2013-01-25 15:45:00,
2013-01-25 09:50:00,27.0,20.4,30.26,NW,316,3.0,3.0,76,0.00,,,0.00,Wunderground v.1.15,2013-01-25 15:50:00,
2013-01-25 09:55:00,27.7,20.8,30.26,WNW,282,2.0,3.0,75,0.00,,,0.00,Wunderground v.1.15,2013-01-25 15:55:00,
2013-01-25 10:00:00,28.4,21.5,30.26,WNW,298,1.0,2.0,75,0.00,,,0.00,Wunderground v.1.15,2013-01-25 16:00:00,
2013-01-25 10:10:00,29.2,21.6,30.26,West,281,2.0,3.0,73,0.00,,,0.00,Wunderground v.1.15,2013-01-25 16:10:00,
2013-01-25 10:20:00,30.2,22.6,30.27,WSW,249,2.0,2.0,73,0.00,,,0.00,Wunderground v.1.15,2013-01-25 16:20:00,
2013-01-25 10:25:00,30.9,22.6,30.27,WNW,287,2.0,4.0,71,0.00,,,0.00,Wunderground v.1.15,2013-01-25 16:25:00,
2013-01-25 10:35:00,31.6,23.3,30.27,NW,319,2.0,4.0,71,0.00,,,0.00,Wunderground v.1.15,2013-01-25 16:35:00,
2013-01-25 10:40:00,32.1,23.4,30.27,NNW,327,2.0,4.0,70,0.00,,,0.00,Wunderground v.1.15,2013-01-25 16:40:00,
2013-01-25 10:50:00,33.0,24.3,30.28,WNW,288,3.0,4.0,70,0.00,,,0.00,Wunderground v.1.15,2013-01-25 16:50:00,
2013-01-25 10:55:00,33.6,24.5,30.28,WNW,288,3.0,4.0,69,0.00,,,0.00,Wunderground v.1.15,2013-01-25 16:55:00,
2013-01-25 11:00:00,34.3,24.8,30.28,WSW,247,2.0,2.0,68,0.00,,,0.00,Wunderground v.1.15,2013-01-25 17:00:00,
2013-01-25 11:05:00,34.9,25.4,30.28,NW,320,2.0,3.0,68,0.00,,,0.00,Wunderground v.1.15,2013-01-25 17:05:00,
2013-01-25 11:15:00,35.9,25.6,30.29,WNW,302,3.0,5.0,66,0.00,,,0.00,Wunderground v.1.15,2013-01-25 17:15:00,
2013-01-25 11:20:00,36.6,26.3,30.29,NW,314,3.0,3.0,66,0.00,,,0.00,Wunderground v.1.15,2013-01-25 17:20:00,
2013-01-25 11:30:00,37.5,26.8,30.28,NNW,338,2.0,3.0,65,0.00,,,0.00,Wunderground v.1.15,2013-01-25 17:30:00,
2013-01-25 11:40:00,38.9,27.8,30.27,NW,307,2.0,5.0,64,0.00,,,0.00,Wunderground v.1.15,2013-01-25 17:40:00,
2013-01-25 11:50:00,40.1,28.1,30.27,NNW,333,3.0,3.0,62,0.00,,,0.00,Wunderground v.1.15,2013-01-25 17:50:00,
2013-01-25 12:00:00,41.6,28.7,30.26,NW,314,5.0,7.0,60,0.00,,,0.00,Wunderground v.1.15,2013-01-25 18:00:00,
2013-01-25 12:10:00,42.4,29.1,30.26,NNW,342,6.0,6.0,59,0.00,,,0.00,Wunderground v.1.15,2013-01-25 18:10:00,
2013-01-25 12:15:00,42.6,29.3,30.26,North,349,6.0,6.0,59,0.00,,,0.00,Wunderground v.1.15,2013-01-25 18:15:00,
2013-01-25 12:25:00,43.1,29.3,30.25,North,352,6.0,6.0,58,0.00,,,0.00,Wunderground v.1.15,2013-01-25 18:25:00,
2013-01-25 12:35:00,43.0,29.6,30.24,NNW,337,7.0,10.0,59,0.00,,,0.00,Wunderground v.1.15,2013-01-25 18:35:00,
2013-01-25 12:40:00,43.5,30.1,30.24,NW,308,6.0,6.0,59,0.00,,,0.00,Wunderground v.1.15,2013-01-25 18:40:00,
2013-01-25 12:50:00,43.9,29.6,30.24,NW,314,6.0,8.0,57,0.00,,,0.00,Wunderground v.1.15,2013-01-25 18:50:00,
2013-01-25 12:55:00,44.0,29.3,30.24,NNW,340,6.0,8.0,56,0.00,,,0.00,Wunderground v.1.15,2013-01-25 18:55:00,
2013-01-25 13:00:00,44.1,29.4,30.24,NNW,328,6.0,6.0,56,0.00,,,0.00,Wunderground v.1.15,2013-01-25 19:00:00,
2013-01-25 13:05:00,44.3,29.6,30.24,NNW,340,6.0,6.0,56,0.00,,,0.00,Wunderground v.1.15,2013-01-25 19:05:00,
2013-01-25 13:15:00,44.6,29.9,30.22,NNW,344,7.0,8.0,56,0.00,,,0.00,Wunderground v.1.15,2013-01-25 19:15:00,
2013-01-25 13:20:00,44.8,29.6,30.22,NW,320,6.0,6.0,55,0.00,,,0.00,Wunderground v.1.15,2013-01-25 19:20:00,
2013-01-25 13:30:00,45.2,30.0,30.22,North,6,5.0,5.0,55,0.00,,,0.00,Wunderground v.1.15,2013-01-25 19:30:00,
2013-01-25 13:40:00,45.7,30.4,30.22,NW,314,6.0,9.0,55,0.00,,,0.00,Wunderground v.1.15,2013-01-25 19:40:00,
2013-01-25 13:50:00,46.3,30.5,30.21,NNE,27,7.0,7.0,54,0.00,,,0.00,Wunderground v.1.15,2013-01-25 19:50:00,
2013-01-25 14:00:00,46.7,30.5,30.21,NNW,340,6.0,6.0,53,0.00,,,0.00,Wunderground v.1.15,2013-01-25 20:00:00,
2013-01-25 14:10:00,46.8,29.6,30.21,NNW,344,6.0,7.0,51,0.00,,,0.00,Wunderground v.1.15,2013-01-25 20:10:00,
2013-01-25 14:20:00,46.8,30.1,30.20,North,349,6.0,6.0,52,0.00,,,0.00,Wunderground v.1.15,2013-01-25 20:20:00,
2013-01-25 14:30:00,47.1,29.4,30.20,NNW,333,6.0,8.0,50,0.00,,,0.00,Wunderground v.1.15,2013-01-25 20:30:00,
2013-01-25 14:40:00,47.2,29.5,30.19,NNW,347,6.0,6.0,50,0.00,,,0.00,Wunderground v.1.15,2013-01-25 20:40:00,
2013-01-25 14:50:00,47.3,29.1,30.19,North,357,6.0,6.0,49,0.00,,,0.00,Wunderground v.1.15,2013-01-25 20:50:00,
2013-01-25 15:00:00,47.3,29.1,30.20,North,8,6.0,7.0,49,0.00,,,0.00,Wunderground v.1.15,2013-01-25 21:00:00,
2013-01-25 15:10:00,47.4,29.7,30.21,NW,325,5.0,5.0,50,0.00,,,0.00,Wunderground v.1.15,2013-01-25 21:10:00,
2013-01-25 15:20:00,47.5,28.8,30.21,NNW,333,5.0,9.0,48,0.00,,,0.00,Wunderground v.1.15,2013-01-25 21:20:00,
2013-01-25 15:30:00,47.6,29.4,30.21,NNW,335,5.0,5.0,49,0.00,,,0.00,Wunderground v.1.15,2013-01-25 21:30:00,
2013-01-25 15:40:00,47.5,29.3,30.21,NNE,13,5.0,5.0,49,0.00,,,0.00,Wunderground v.1.15,2013-01-25 21:40:00,
2013-01-25 15:50:00,47.3,29.1,30.21,NNW,328,5.0,5.0,49,0.00,,,0.00,Wunderground v.1.15,2013-01-25 21:50:00,
2013-01-25 16:00:00,47.3,29.6,30.21,NNW,335,5.0,5.0,50,0.00,,,0.00,Wunderground v.1.15,2013-01-25 22:00:00,
2013-01-25 16:10:00,47.2,29.5,30.22,NNW,348,4.0,6.0,50,0.00,,,0.00,Wunderground v.1.15,2013-01-25 22:10:00,
2013-01-25 16:15:00,47.1,29.4,30.22,NNE,23,4.0,6.0,50,0.00,,,0.00,Wunderground v.1.15,2013-01-25 22:15:00,
2013-01-25 16:25:00,46.9,29.7,30.22,NE,38,4.0,4.0,51,0.00,,,0.00,Wunderground v.1.15,2013-01-25 22:25:00,
2013-01-25 16:35:00,46.7,30.0,30.22,NNW,340,3.0,3.0,52,0.00,,,0.00,Wunderground v.1.15,2013-01-25 22:35:00,
2013-01-25 16:45:00,46.4,29.2,30.23,NNE,33,3.0,3.0,51,0.00,,,0.00,Wunderground v.1.15,2013-01-25 22:45:00,
2013-01-25 16:55:00,46.0,29.8,30.22,NNE,20,4.0,5.0,53,0.00,,,0.00,Wunderground v.1.15,2013-01-25 22:55:00,
2013-01-25 17:00:00,45.6,29.4,30.23,NNE,18,3.0,6.0,53,0.00,,,0.00,Wunderground v.1.15,2013-01-25 23:00:00,
2013-01-25 17:10:00,44.7,29.1,30.22,NNE,16,4.0,4.0,54,0.00,,,0.00,Wunderground v.1.15,2013-01-25 23:10:00,
2013-01-25 17:20:00,43.4,28.3,30.22,North,1,4.0,4.0,55,0.00,,,0.00,Wunderground v.1.15,2013-01-25 23:20:00,
2013-01-25 17:25:00,42.7,28.1,30.22,North,352,4.0,4.0,56,0.00,,,0.00,Wunderground v.1.15,2013-01-25 23:25:00,
2013-01-25 17:35:00,40.9,28.5,30.22,NNE,27,5.0,5.0,61,0.00,,,0.00,Wunderground v.1.15,2013-01-25 23:35:00,
2013-01-25 17:40:00,40.2,28.2,30.22,NE,41,6.0,6.0,62,0.00,,,0.00,Wunderground v.1.15,2013-01-25 23:40:00,
2013-01-25 17:50:00,39.5,28.3,30.23,North,11,5.0,5.0,64,0.00,,,0.00,Wunderground v.1.15,2013-01-25 23:50:00,
2013-01-25 18:00:00,38.0,27.6,30.23,NE,34,2.0,2.0,66,0.00,,,0.00,Wunderground v.1.15,2013-01-26 00:00:00,
2013-01-25 18:10:00,37.7,27.7,30.23,NNE,26,2.0,4.0,67,0.00,,,0.00,Wunderground v.1.15,2013-01-26 00:10:00,
2013-01-25 18:20:00,37.2,27.2,30.24,NNE,12,3.0,3.0,67,0.00,,,0.00,Wunderground v.1.15,2013-01-26 00:20:00,
2013-01-25 18:30:00,36.2,27.4,30.24,ENE,71,2.0,2.0,70,0.00,,,0.00,Wunderground v.1.15,2013-01-26 00:30:00,
2013-01-25 18:40:00,35.7,27.2,30.24,NNE,32,1.0,1.0,71,0.00,,,0.00,Wunderground v.1.15,2013-01-26 00:40:00,
2013-01-25 18:50:00,35.7,27.2,30.24,NNE,29,2.0,3.0,71,0.00,,,0.00,Wunderground v.1.15,2013-01-26 00:50:00,
2013-01-25 18:55:00,36.1,27.3,30.24,NNE,25,3.0,5.0,70,0.00,,,0.00,Wunderground v.1.15,2013-01-26 00:55:00,
2013-01-25 19:00:00,36.1,26.9,30.25,NE,44,5.0,5.0,69,0.00,,,0.00,Wunderground v.1.15,2013-01-26 01:00:00,
2013-01-25 19:10:00,35.5,26.7,30.25,NNE,25,5.0,5.0,70,0.00,,,0.00,Wunderground v.1.15,2013-01-26 01:10:00,
2013-01-25 19:20:00,35.0,26.9,30.25,NNE,28,5.0,5.0,72,0.00,,,0.00,Wunderground v.1.15,2013-01-26 01:20:00,
2013-01-25 19:30:00,34.2,26.1,30.25,ENE,73,2.0,2.0,72,0.00,,,0.00,Wunderground v.1.15,2013-01-26 01:30:00,
2013-01-25 19:40:00,33.7,26.0,30.25,NE,40,1.0,3.0,73,0.00,,,0.00,Wunderground v.1.15,2013-01-26 01:40:00,
2013-01-25 19:50:00,34.1,26.0,30.25,NNE,20,3.0,3.0,72,0.00,,,0.00,Wunderground v.1.15,2013-01-26 01:50:00,
2013-01-25 20:00:00,34.0,25.9,30.25,North,11,4.0,4.0,72,0.00,,,0.00,Wunderground v.1.15,2013-01-26 02:00:00,
2013-01-25 20:10:00,33.6,25.5,30.26,NNE,18,3.0,3.0,72,0.00,,,0.00,Wunderground v.1.15,2013-01-26 02:10:00,
2013-01-25 20:20:00,32.8,24.4,30.27,West,264,2.0,2.0,71,0.00,,,0.00,Wunderground v.1.15,2013-01-26 02:20:00,
2013-01-25 20:30:00,30.0,23.4,30.27,WNW,288,2.0,2.0,76,0.00,,,0.00,Wunderground v.1.15,2013-01-26 02:30:00,
2013-01-25 20:40:00,29.4,24.0,30.28,NNW,327,0.0,0.0,80,0.00,,,0.00,Wunderground v.1.15,2013-01-26 02:40:00,
2013-01-25 20:50:00,29.8,24.1,30.27,North,1,1.0,1.0,79,0.00,,,0.00,Wunderground v.1.15,2013-01-26 02:50:00,
2013-01-25 21:00:00,28.9,23.8,30.27,North,11,1.0,2.0,81,0.00,,,0.00,Wunderground v.1.15,2013-01-26 03:00:00,
2013-01-25 21:10:00,29.4,24.3,30.27,NNW,348,2.0,2.0,81,0.00,,,0.00,Wunderground v.1.15,2013-01-26 03:10:00,
2013-01-25 21:20:00,29.9,25.4,30.27,NE,43,3.0,4.0,83,0.00,,,0.00,Wunderground v.1.15,2013-01-26 03:20:00,
2013-01-25 21:30:00,30.1,25.3,30.27,NNE,32,5.0,5.0,82,0.00,,,0.00,Wunderground v.1.15,2013-01-26 03:30:00,
2013-01-25 21:40:00,29.9,25.1,30.28,NNE,15,4.0,4.0,82,0.00,,,0.00,Wunderground v.1.15,2013-01-26 03:40:00,
2013-01-25 21:50:00,29.7,24.9,30.28,NNW,347,3.0,3.0,82,0.00,,,0.00,Wunderground v.1.15,2013-01-26 03:50:00,
2013-01-25 22:00:00,29.3,24.8,30.27,NNE,20,3.0,5.0,83,0.00,,,0.00,Wunderground v.1.15,2013-01-26 04:00:00,
2013-01-25 22:10:00,28.8,24.3,30.27,NNE,25,5.0,5.0,83,0.00,,,0.00,Wunderground v.1.15,2013-01-26 04:10:00,
2013-01-25 22:20:00,28.3,24.1,30.27,NNE,20,4.0,4.0,84,0.00,,,0.00,Wunderground v.1.15,2013-01-26 04:20:00,
2013-01-25 22:30:00,27.9,23.7,30.28,North,1,2.0,2.0,84,0.00,,,0.00,Wunderground v.1.15,2013-01-26 04:30:00,
2013-01-25 22:40:00,27.8,23.9,30.28,North,358,3.0,4.0,85,0.00,,,0.00,Wunderground v.1.15,2013-01-26 04:40:00,
2013-01-25 22:50:00,27.7,23.8,30.28,NNE,22,4.0,4.0,85,0.00,,,0.00,Wunderground v.1.15,2013-01-26 04:50:00,
2013-01-25 23:01:00,27.4,23.5,30.28,NNE,33,4.0,4.0,85,0.00,,,0.00,Wunderground v.1.15,2013-01-26 05:01:00,
2013-01-25 23:05:00,27.3,23.7,30.28,NNE,20,4.0,4.0,86,0.00,,,0.00,Wunderground v.1.15,2013-01-26 05:05:00,
2013-01-25 23:10:00,27.0,23.4,30.28,NE,41,2.0,2.0,86,0.00,,,0.00,Wunderground v.1.15,2013-01-26 05:10:00,
2013-01-25 23:15:00,26.7,23.1,30.28,NNE,28,2.0,3.0,86,0.00,,,0.00,Wunderground v.1.15,2013-01-26 05:15:00,
2013-01-25 23:20:00,26.4,22.8,30.28,ENE,65,2.0,3.0,86,0.00,,,0.00,Wunderground v.1.15,2013-01-26 05:20:00,
2013-01-25 23:25:00,26.1,22.5,30.28,NNE,15,2.0,3.0,86,0.00,,,0.00,Wunderground v.1.15,2013-01-26 05:25:00,
2013-01-25 23:35:00,25.7,22.4,30.29,ENE,69,1.0,3.0,87,0.00,,,0.00,Wunderground v.1.15,2013-01-26 05:35:00,
2013-01-25 23:45:00,25.7,22.1,30.30,NNE,18,3.0,3.0,86,0.00,,,0.00,Wunderground v.1.15,2013-01-26 05:45:00,
2013-01-25 23:55:00,25.7,21.8,30.30,NNE,25,3.0,4.0,85,0.00,,,0.00,Wunderground v.1.15,2013-01-26 05:55:00,